Time;durP1;ratioP1;P1;durP2;ratioP2;P2;SDS_P1;SDS_P2;PMS_P1;PMS_P2;Temp;Humidity;BMP_temperature;BMP_pressure;BME280_temperature;BME280_humidity;BME280_pressure;Samples;Min_cycle;Max_cycle;Signal;HPM_P1;HPM_P2
2022/09/09 00:00:47;;;;;;;10.13;3.70;;;;;;;18.68;74.13;99842.28;5077174;27;96747;-79
2022/09/09 00:03:19;;;;;;;4.43;4.03;;;;;;;18.69;74.22;99843.13;5068050;27;97263;-79
2022/09/09 00:05:47;;;;;;;4.43;3.88;;;;;;;18.65;74.31;99847.00;5076181;27;98032;-79
2022/09/09 00:08:21;;;;;;;4.13;3.60;;;;;;;18.59;74.64;99856.28;5073229;27;101563;-79
2022/09/09 00:10:54;;;;;;;5.10;3.83;;;;;;;18.57;74.40;99847.56;5065191;27;97200;-79
2022/09/09 00:13:45;;;;;;;6.65;3.92;;;;;;;18.50;74.83;99847.19;5073682;27;96885;-79
2022/09/09 00:16:18;;;;;;;6.43;4.28;;;;;;;18.50;74.43;99839.22;5090414;27;101330;-79
2022/09/09 00:19:18;;;;;;;6.28;4.03;;;;;;;18.48;74.51;99849.09;5069231;27;97581;-78
2022/09/09 00:21:50;;;;;;;5.22;3.45;;;;;;;18.56;74.05;99845.88;5063230;27;97146;-78
2022/09/09 00:24:38;;;;;;;7.28;3.53;;;;;;;18.46;74.18;99853.66;5062042;27;97129;-84
2022/09/09 00:27:15;;;;;;;5.93;3.25;;;;;;;18.42;74.65;99852.22;5094457;27;98054;-78
2022/09/09 00:29:49;;;;;;;4.03;3.53;;;;;;;18.36;74.30;99850.00;5062561;27;102029;-78
2022/09/09 00:32:18;;;;;;;6.95;3.08;;;;;;;18.35;74.35;99848.31;5078610;27;96928;-83
2022/09/09 00:34:56;;;;;;;6.30;3.45;;;;;;;18.24;74.55;99849.09;5059951;27;96786;-80
2022/09/09 00:37:23;;;;;;;4.78;3.72;;;;;;;18.29;74.06;99846.09;5066795;27;102272;-81
2022/09/09 00:39:51;;;;;;;3.58;3.25;;;;;;;18.32;73.82;99845.88;5066491;27;101657;-79
2022/09/09 00:42:25;;;;;;;6.85;3.83;;;;;;;18.20;74.07;99852.09;5057670;27;98102;-83
2022/09/09 00:45:15;;;;;;;6.22;4.20;;;;;;;18.32;73.61;99840.56;5056013;27;97850;-79
2022/09/09 00:47:45;;;;;;;7.22;3.42;;;;;;;18.17;74.23;99847.00;5064991;27;102038;-80
2022/09/09 00:50:29;;;;;;;12.88;3.88;;;;;;;18.08;74.47;99846.72;5072458;27;98427;-79
2022/09/09 00:53:19;;;;;;;10.48;3.88;;;;;;;18.15;74.38;99846.25;5068462;27;97151;-79
2022/09/09 00:55:49;;;;;;;12.07;3.72;;;;;;;18.11;74.56;99848.28;5075683;27;96809;-79
2022/09/09 00:58:14;;;;;;;11.23;4.40;;;;;;;18.08;74.64;99846.72;5065061;27;101081;-79
2022/09/09 01:00:48;;;;;;;6.95;4.05;;;;;;;18.03;74.73;99845.34;5074975;27;101151;-79
2022/09/09 01:03:30;;;;;;;8.07;3.65;;;;;;;18.03;74.74;99855.97;5073587;27;99647;-79
2022/09/09 01:06:15;;;;;;;7.78;4.30;;;;;;;18.02;74.80;99851.63;5074715;27;96761;-79
2022/09/09 01:09:12;;;;;;;5.47;3.55;;;;;;;18.07;74.50;99857.47;5062053;27;101627;-78
2022/09/09 01:11:52;;;;;;;6.95;3.83;;;;;;;18.02;74.30;99862.25;5083402;27;101964;-83
2022/09/09 01:14:30;;;;;;;8.35;4.05;;;;;;;17.94;74.60;99856.63;5063942;27;96800;-84
2022/09/09 01:16:59;;;;;;;7.50;4.55;;;;;;;17.94;74.71;99853.97;5058323;27;97195;-79
2022/09/09 01:19:54;;;;;;;8.30;4.38;;;;;;;17.91;74.23;99851.53;5072627;27;102039;-78
2022/09/09 01:22:58;;;;;;;12.05;3.75;;;;;;;17.90;74.44;99855.16;5057615;27;101603;-79
2022/09/09 01:26:07;;;;;;;8.90;3.83;;;;;;;17.83;74.96;99860.03;5086807;27;97109;-81
2022/09/09 01:28:35;;;;;;;7.97;3.60;;;;;;;17.83;74.50;99866.22;5070871;27;97122;-82
2022/09/09 01:31:06;;;;;;;7.75;3.40;;;;;;;17.86;74.69;99859.84;5065166;27;100765;-78
2022/09/09 01:33:38;;;;;;;10.05;3.67;;;;;;;17.90;74.17;99868.44;5073659;27;101887;-79
2022/09/09 01:36:12;;;;;;;9.70;3.97;;;;;;;17.88;74.35;99868.53;5072732;27;97956;-79
2022/09/09 01:38:48;;;;;;;8.30;3.45;;;;;;;17.82;74.31;99866.31;5059871;27;96892;-80
2022/09/09 01:41:15;;;;;;;8.63;3.67;;;;;;;17.88;73.84;99868.53;5071272;27;101277;-80
2022/09/09 01:43:49;;;;;;;3.33;3.03;;;;;;;17.80;73.80;99870.88;5075369;27;101257;-79
2022/09/09 01:46:16;;;;;;;6.10;3.13;;;;;;;17.85;73.76;99868.75;5076148;27;97971;-80
2022/09/09 01:48:42;;;;;;;5.43;3.30;;;;;;;17.69;74.09;99861.03;5060510;27;96822;-80
2022/09/09 01:51:10;;;;;;;5.85;3.53;;;;;;;17.77;74.15;99871.94;5067518;27;101716;-80
2022/09/09 01:53:37;;;;;;;6.05;3.20;;;;;;;17.71;74.00;99880.31;5075784;27;100795;-79
2022/09/09 01:56:05;;;;;;;6.88;3.33;;;;;;;17.72;73.59;99883.84;5074861;27;96830;-79
2022/09/09 01:58:38;;;;;;;;;;;;;;;17.72;73.76;99876.72;5074598;27;97292;-80
2022/09/09 02:01:15;;;;;;;3.90;3.53;;;;;;;17.70;73.84;99878.63;5071765;27;101313;-80
2022/09/09 02:03:44;;;;;;;4.70;3.15;;;;;;;17.63;74.18;99880.03;5093717;27;100621;-80
2022/09/09 02:06:36;;;;;;;4.32;3.30;;;;;;;17.56;74.37;99886.72;5068201;27;97993;-80
2022/09/09 02:09:19;;;;;;;7.50;3.38;;;;;;;17.45;74.25;99873.34;5062293;27;97199;-80
2022/09/09 02:11:47;;;;;;;3.70;2.95;;;;;;;17.48;74.21;99871.31;5072838;27;101831;-80
2022/09/09 02:14:30;;;;;;;4.38;3.25;;;;;;;17.52;74.26;99886.09;5074669;27;101556;-80
2022/09/09 02:17:01;;;;;;;4.97;3.60;;;;;;;17.54;74.29;99896.56;5078878;27;97253;-80
2022/09/09 02:19:48;;;;;;;4.40;3.40;;;;;;;17.54;74.14;99886.84;5065511;27;97113;-81
2022/09/09 02:22:26;;;;;;;3.45;3.15;;;;;;;17.57;74.15;99883.09;5064466;27;101528;-82
2022/09/09 02:24:54;;;;;;;5.13;3.00;;;;;;;17.51;74.07;99891.47;5076662;27;101568;-79
2022/09/09 02:27:24;;;;;;;3.53;2.63;;;;;;;17.50;73.91;99892.44;5072222;27;97309;-80
2022/09/09 02:29:51;;;;;;;3.47;2.80;;;;;;;17.36;74.33;99880.97;5077349;27;97038;-79
2022/09/09 02:32:22;;;;;;;;;;;;;;;17.39;74.56;99899.38;5079877;27;100673;-84
2022/09/09 02:35:04;;;;;;;4.10;2.90;;;;;;;17.39;74.34;99901.13;5071897;27;101928;-80
2022/09/09 02:37:35;;;;;;;3.20;2.90;;;;;;;17.41;74.28;99907.19;5046700;27;97187;-84
2022/09/09 02:40:04;;;;;;;3.10;2.85;;;;;;;17.29;74.54;99900.09;5076207;27;96855;-81
2022/09/09 02:42:30;;;;;;;5.50;3.13;;;;;;;17.25;74.70;99899.47;5066919;27;101639;-82
2022/09/09 02:44:57;;;;;;;4.63;3.13;;;;;;;17.30;74.80;99896.47;5077439;27;100285;-80
2022/09/09 02:47:41;;;;;;;4.43;3.53;;;;;;;17.26;75.06;99903.81;5076498;27;96699;-83
2022/09/09 02:50:25;;;;;;;3.58;3.08;;;;;;;17.23;74.69;99906.66;5079754;27;96993;-80
2022/09/09 02:53:13;;;;;;;5.00;3.20;;;;;;;17.26;74.54;99903.81;5068271;27;101911;-81
2022/09/09 02:55:48;;;;;;;2.97;2.75;;;;;;;17.19;74.07;99887.47;5078904;27;101756;-80
2022/09/09 02:58:17;;;;;;;3.47;2.95;;;;;;;17.19;74.83;99906.03;5089754;27;97318;-81
2022/09/09 03:00:48;;;;;;;3.35;3.03;;;;;;;17.33;74.13;99915.69;5068275;27;96990;-81
2022/09/09 03:03:15;;;;;;;4.05;3.58;;;;;;;17.34;74.08;99908.59;5083537;27;98236;-80
2022/09/09 03:05:42;;;;;;;5.38;3.03;;;;;;;17.27;73.93;99920.56;5056170;27;101633;-81
2022/09/09 03:08:08;;;;;;;4.07;3.33;;;;;;;17.13;73.91;99900.28;5082739;27;96736;-80
2022/09/09 03:10:34;;;;;;;3.42;3.13;;;;;;;17.25;73.53;99911.84;5055862;27;96841;-79
2022/09/09 03:13:00;;;;;;;3.67;3.38;;;;;;;17.20;73.90;99910.38;5068332;27;101764;-82
2022/09/09 03:15:30;;;;;;;4.68;3.65;;;;;;;16.87;74.33;99896.72;5070268;27;100824;-79
2022/09/09 03:17:58;;;;;;;5.03;3.40;;;;;;;16.95;74.61;99920.94;5068470;27;97028;-84
2022/09/09 03:20:25;;;;;;;7.20;3.83;;;;;;;16.83;74.70;99913.78;5081812;27;96902;-84
2022/09/09 03:22:52;;;;;;;4.03;3.63;;;;;;;16.79;74.87;99909.66;5056182;27;101415;-83
2022/09/09 03:25:18;;;;;;;3.67;3.38;;;;;;;16.97;74.62;99921.69;5061773;27;101413;-80
2022/09/09 03:27:45;;;;;;;12.88;3.67;;;;;;;16.93;74.64;99922.84;5076047;27;96796;-80
2022/09/09 03:30:12;;;;;;;7.13;3.45;;;;;;;16.70;74.83;99900.47;5061830;27;96993;-80
2022/09/09 03:32:37;;;;;;;5.25;3.25;;;;;;;16.73;75.22;99926.78;5076998;27;101656;-80
2022/09/09 03:35:04;;;;;;;8.77;3.25;;;;;;;16.62;75.16;99908.94;5059520;27;100430;-80
2022/09/09 03:37:29;;;;;;;5.85;3.10;;;;;;;16.75;75.29;99922.22;5051887;27;96950;-82
2022/09/09 03:39:55;;;;;;;8.05;3.30;;;;;;;16.85;74.64;99927.81;5065166;27;96741;-81
2022/09/09 03:42:22;;;;;;;3.88;3.53;;;;;;;16.87;74.21;99928.53;5079720;27;101557;-79
2022/09/09 03:44:51;;;;;;;4.55;3.50;;;;;;;16.75;74.67;99920.44;5079354;27;101764;-81
2022/09/09 03:47:21;;;;;;;3.92;3.15;;;;;;;16.67;74.97;99928.03;5062759;27;97115;-80
2022/09/09 03:49:48;;;;;;;10.10;3.72;;;;;;;16.60;75.02;99925.88;5060498;27;97226;-80
2022/09/09 03:52:14;;;;;;;5.28;4.30;;;;;;;16.58;75.20;99933.06;5077944;27;100830;-80
2022/09/09 03:54:42;;;;;;;5.80;3.40;;;;;;;16.53;74.90;99930.72;5073359;27;101189;-80
2022/09/09 03:57:09;;;;;;;4.47;3.58;;;;;;;16.47;75.08;99936.44;5066401;27;96834;-83
2022/09/09 03:59:34;;;;;;;8.38;4.85;;;;;;;16.35;75.54;99919.53;5059725;27;97030;-80
2022/09/09 04:02:01;;;;;;;7.90;3.42;;;;;;;16.48;74.91;99941.59;5071958;27;101293;-80
2022/09/09 04:04:26;;;;;;;3.58;3.28;;;;;;;16.46;74.65;99937.34;5052728;27;101101;-84
2022/09/09 04:06:53;;;;;;;8.13;3.10;;;;;;;16.49;74.57;99940.69;5077985;27;96967;-81
2022/09/09 04:09:18;;;;;;;5.45;3.17;;;;;;;16.46;74.39;99937.34;5071329;27;96833;-80
2022/09/09 04:11:45;;;;;;;6.85;3.40;;;;;;;16.54;74.20;99948.31;5064620;27;102547;-80
2022/09/09 04:14:12;;;;;;;5.85;3.65;;;;;;;16.64;73.56;99945.91;5049642;27;101338;-80
2022/09/09 04:16:38;;;;;;;5.75;3.45;;;;;;;16.47;73.74;99953.16;5056894;27;97649;-81
2022/09/09 04:19:04;;;;;;;8.13;3.75;;;;;;;16.32;74.30;99940.91;5061557;27;97143;-80
2022/09/09 04:21:30;;;;;;;7.20;3.85;;;;;;;16.15;75.29;99936.69;5070535;27;101676;-85
2022/09/09 04:23:56;;;;;;;5.20;3.30;;;;;;;16.28;74.67;99942.88;5078163;27;101578;-85
2022/09/09 04:26:22;;;;;;;6.25;3.35;;;;;;;16.26;74.80;99957.16;5071411;27;97384;-80
2022/09/09 04:28:48;;;;;;;4.63;3.50;;;;;;;16.36;74.94;99955.66;5095651;27;97332;-80
2022/09/09 04:31:19;;;;;;;5.78;3.38;;;;;;;16.47;74.39;99957.63;5078821;27;101312;-82
2022/09/09 04:33:47;;;;;;;5.97;3.65;;;;;;;16.41;74.52;99950.06;5075858;27;101427;-80
2022/09/09 04:36:14;;;;;;;4.55;3.55;;;;;;;16.36;74.68;99955.66;5062944;27;97301;-81
2022/09/09 04:38:39;;;;;;;4.78;3.78;;;;;;;16.10;74.80;99927.31;5085199;27;97203;-81
2022/09/09 04:41:05;;;;;;;6.30;3.53;;;;;;;16.16;75.35;99951.63;5058354;27;101063;-81
2022/09/09 04:43:34;;;;;;;6.10;3.80;;;;;;;16.11;75.88;99964.28;5080568;27;101585;-81
2022/09/09 04:46:02;;;;;;;12.35;4.35;;;;;;;16.12;75.93;99962.50;5073309;27;99078;-80
2022/09/09 04:48:27;;;;;;;9.13;4.20;;;;;;;16.13;75.38;99937.72;5075745;27;97121;-87
2022/09/09 04:50:57;;;;;;;7.03;4.25;;;;;;;16.25;75.34;99958.97;5057431;27;100933;-81
2022/09/09 04:53:23;;;;;;;5.13;3.22;;;;;;;16.45;74.67;99954.22;5076503;27;100397;-81
2022/09/09 04:55:49;;;;;;;6.90;3.63;;;;;;;16.29;75.14;99951.72;5058191;27;96824;-81
2022/09/09 04:58:14;;;;;;;5.22;3.65;;;;;;;16.32;75.07;99961.22;5076974;27;97325;-78
2022/09/09 05:00:42;;;;;;;9.15;4.10;;;;;;;16.49;74.31;99947.75;5072216;27;101500;-79
2022/09/09 05:03:08;;;;;;;6.00;3.38;;;;;;;16.58;73.97;99960.44;5070009;27;101394;-82
2022/09/09 05:05:35;;;;;;;6.47;3.35;;;;;;;16.61;74.28;99962.88;5064490;27;96793;-79
2022/09/09 05:08:05;;;;;;;3.78;3.40;;;;;;;16.62;74.27;99961.06;5069674;27;96811;-81
2022/09/09 05:10:32;;;;;;;7.80;3.60;;;;;;;17.22;72.86;99967.75;5049425;27;101125;-83
2022/09/09 05:12:58;;;;;;;4.93;3.42;;;;;;;17.53;72.02;99971.84;5055525;27;100834;-80
2022/09/09 05:15:26;;;;;;;5.10;3.35;;;;;;;17.81;71.49;99969.03;5071347;27;97106;-79
2022/09/09 05:17:54;;;;;;;5.88;3.22;;;;;;;18.08;70.44;99971.53;5073792;27;97360;-79
2022/09/09 05:20:20;;;;;;;4.38;3.10;;;;;;;17.96;69.63;99968.91;5073920;27;101467;-80
2022/09/09 05:22:45;;;;;;;4.10;2.90;;;;;;;18.01;69.77;99977.41;5059599;27;101250;-79
2022/09/09 05:25:11;;;;;;;3.20;2.80;;;;;;;18.00;70.39;99976.53;5057560;27;98107;-94
2022/09/09 05:27:37;;;;;;;5.22;3.17;;;;;;;18.07;70.33;99979.63;5061107;27;96870;-93
2022/09/09 05:30:04;;;;;;;7.60;3.67;;;;;;;18.10;70.36;99969.63;5061372;27;100198;-92
2022/09/09 05:32:33;;;;;;;4.78;2.88;;;;;;;18.05;70.42;99970.91;5069138;27;100999;-91
2022/09/09 05:34:58;;;;;;;6.80;3.30;;;;;;;18.16;70.07;99981.63;5058449;27;97048;-94
2022/09/09 05:37:25;;;;;;;3.78;3.00;;;;;;;18.25;69.63;99982.78;5063577;27;97022;-94
2022/09/09 05:39:51;;;;;;;3.53;2.78;;;;;;;18.36;69.40;99990.84;5064903;27;100674;-93
2022/09/09 05:42:17;;;;;;;4.40;2.97;;;;;;;18.36;69.62;99974.06;5070101;27;100232;-83
2022/09/09 05:44:44;;;;;;;6.88;3.03;;;;;;;18.41;68.90;99971.88;5063816;27;96806;-90
2022/09/09 05:47:11;;;;;;;9.70;2.92;;;;;;;18.54;68.37;99970.06;5066635;27;96837;-90
2022/09/09 05:49:37;;;;;;;5.68;2.90;;;;;;;18.63;68.28;99966.72;5096917;27;100427;-91
2022/09/09 05:52:03;;;;;;;5.90;2.90;;;;;;;18.75;67.70;99960.53;5065647;27;101542;-91
2022/09/09 05:54:29;;;;;;;5.05;2.60;;;;;;;18.60;66.94;99940.38;5060813;27;97212;-95
2022/09/09 05:56:55;;;;;;;3.83;2.40;;;;;;;18.60;66.95;99928.88;5058672;27;97244;-93
2022/09/09 05:59:23;;;;;;;10.48;4.32;;;;;;;18.91;67.34;99952.28;5055971;27;100151;-90
2022/09/09 06:01:50;;;;;;;7.05;2.88;;;;;;;19.08;66.83;99961.66;5077276;27;101071;-94
2022/09/09 06:04:35;;;;;;;5.78;2.28;;;;;;;19.29;66.30;99966.31;5072149;27;96711;-93
2022/09/09 06:07:02;;;;;;;15.77;2.83;;;;;;;19.48;65.84;99965.75;5079567;27;96667;-94
2022/09/09 06:09:30;;;;;;;7.20;2.88;;;;;;;19.52;65.14;99965.41;5059261;27;99879;-95
2022/09/09 06:11:57;;;;;;;3.88;2.42;;;;;;;19.92;64.86;99972.13;5080819;27;101645;-95
2022/09/09 06:14:27;;;;;;;6.15;3.00;;;;;;;19.86;64.59;99929.03;5073214;27;96856;-94
2022/09/09 06:16:53;;;;;;;6.77;2.83;;;;;;;20.52;64.69;99960.22;5066127;27;97049;-93
2022/09/09 06:19:26;;;;;;;9.20;3.50;;;;;;;20.89;63.28;99965.25;5055369;27;99677;-94
2022/09/09 06:21:54;;;;;;;6.95;2.58;;;;;;;21.32;62.02;99956.31;5074945;27;99923;-91
2022/09/09 06:24:20;;;;;;;6.07;2.15;;;;;;;21.26;61.13;99925.63;5065763;27;97140;-92
2022/09/09 06:26:45;;;;;;;5.50;2.63;;;;;;;21.81;60.52;99960.16;5071125;27;97135;-94
2022/09/09 06:29:15;;;;;;;6.70;2.97;;;;;;;22.14;60.02;99943.00;5070570;27;100990;-82
2022/09/09 06:31:41;;;;;;;6.15;2.90;;;;;;;22.80;58.63;99966.53;5062811;27;101003;-83
2022/09/09 06:34:13;;;;;;;7.10;3.10;;;;;;;23.04;57.95;99960.81;5067174;27;97068;-83
2022/09/09 06:36:45;;;;;;;12.90;3.45;;;;;;;23.68;56.77;99962.84;5074241;27;97514;-83
2022/09/09 06:39:11;;;;;;;5.25;2.60;;;;;;;24.51;53.64;99967.47;5058707;27;101765;-84
2022/09/09 06:41:38;;;;;;;12.40;2.63;;;;;;;25.23;51.44;99966.53;5077109;27;101557;-84
2022/09/09 06:44:07;;;;;;;7.25;2.63;;;;;;;25.38;50.96;99966.81;5089167;27;97161;-96
2022/09/09 06:46:39;;;;;;;2.40;1.60;;;;;;;25.29;50.09;99957.88;5066173;27;96906;-92
2022/09/09 06:49:05;;;;;;;8.63;2.28;;;;;;;26.55;48.42;99969.00;5079297;27;99535;-86
2022/09/09 06:51:33;;;;;;;5.05;2.13;;;;;;;28.49;44.47;99953.03;5080027;27;101168;-89
2022/09/09 06:54:01;;;;;;;8.18;2.25;;;;;;;29.47;42.73;99946.94;5083004;27;96794;-94
2022/09/09 06:56:42;;;;;;;4.65;2.15;;;;;;;30.83;40.04;99951.06;5079607;27;97295;-90
2022/09/09 06:59:12;;;;;;;9.45;2.30;;;;;;;32.07;38.87;99951.44;5062913;27;101842;-89
2022/09/09 07:01:40;;;;;;;3.78;1.83;;;;;;;30.89;40.69;99947.56;5088132;27;101436;-89
2022/09/09 07:04:10;;;;;;;6.40;2.17;;;;;;;30.87;40.35;99955.91;5081306;27;97375;-94
2022/09/09 07:06:43;;;;;;;6.32;1.92;;;;;;;31.14;38.94;99958.88;5076731;27;97054;-89
2022/09/09 07:09:12;;;;;;;4.90;2.33;;;;;;;33.23;36.26;99954.13;5087107;27;101000;-92
2022/09/09 07:11:41;;;;;;;5.75;2.58;;;;;;;34.56;34.42;99959.31;5061769;27;99535;-91
2022/09/09 07:14:08;;;;;;;6.93;2.30;;;;;;;34.98;33.83;99943.31;5072408;27;96775;-95
2022/09/09 07:16:36;;;;;;;8.60;2.20;;;;;;;35.04;34.22;99945.16;5081716;27;97053;-85
2022/09/09 07:19:03;;;;;;;8.82;2.03;;;;;;;35.82;33.35;99944.72;5053932;27;101217;-94
2022/09/09 07:21:30;;;;;;;4.95;1.60;;;;;;;36.31;32.81;99950.28;5106961;27;99286;-96
2022/09/09 07:23:56;;;;;;;6.93;2.08;;;;;;;37.11;31.07;99951.91;5070896;27;96761;-88
2022/09/09 07:26:30;;;;;;;9.13;1.80;;;;;;;37.09;30.22;99945.84;5074268;27;96898;-91
2022/09/09 07:28:58;;;;;;;7.97;1.55;;;;;;;36.31;30.32;99944.81;5073153;27;99543;-89
2022/09/09 07:31:32;;;;;;;3.55;1.40;;;;;;;36.81;30.00;99941.00;5068662;27;100154;-93
2022/09/09 07:34:00;;;;;;;6.50;1.85;;;;;;;36.92;30.07;99932.81;5075454;27;97416;-91
2022/09/09 07:36:32;;;;;;;7.35;1.60;;;;;;;37.87;29.59;99930.16;5067970;27;97042;-90
2022/09/09 07:39:06;;;;;;;5.30;1.52;;;;;;;38.75;28.65;99944.56;5061482;27;101752;-88
2022/09/09 07:41:38;;;;;;;5.82;1.35;;;;;;;38.84;27.81;99954.06;5050608;27;101987;-87
2022/09/09 07:44:10;;;;;;;8.85;1.50;;;;;;;39.55;26.64;99941.56;5055446;27;98194;-91
2022/09/09 07:46:38;;;;;;;3.47;1.42;;;;;;;38.99;27.96;99953.53;5048934;27;96816;-90
2022/09/09 07:49:04;;;;;;;7.88;1.88;;;;;;;38.92;27.04;99956.41;5062887;27;101397;-92
2022/09/09 07:51:35;;;;;;;3.05;1.48;;;;;;;37.88;28.10;99953.75;5069160;27;101567;-91
2022/09/09 07:54:03;;;;;;;5.07;1.67;;;;;;;37.63;28.73;99957.56;5064123;27;98212;-92
2022/09/09 07:56:31;;;;;;;3.80;1.50;;;;;;;37.09;29.63;99954.03;5058784;27;97052;-90
2022/09/09 07:59:01;;;;;;;4.22;1.60;;;;;;;39.43;26.19;99951.81;5070302;27;100952;-88
2022/09/09 08:01:29;;;;;;;7.80;1.90;;;;;;;38.91;27.68;99957.50;5074366;27;99877;-81
2022/09/09 08:03:59;;;;;;;3.28;1.30;;;;;;;38.60;27.29;99951.41;5069567;27;97327;-80
2022/09/09 08:06:26;;;;;;;2.33;1.20;;;;;;;38.83;25.52;99950.47;5059429;27;96847;-82
2022/09/09 08:08:52;;;;;;;1.17;0.98;;;;;;;38.40;26.14;99953.78;5070939;27;100912;-90
2022/09/09 08:11:19;;;;;;;3.58;1.30;;;;;;;38.17;26.91;99943.72;5060630;27;101955;-81
2022/09/09 08:13:44;;;;;;;3.67;1.52;;;;;;;38.38;27.41;99934.81;5065497;27;97344;-81
2022/09/09 08:16:13;;;;;;;12.10;3.22;;;;;;;37.64;27.68;99948.28;5080732;27;96902;-82
2022/09/09 08:18:39;;;;;;;11.77;1.88;;;;;;;37.14;28.19;99948.69;5068177;27;101355;-82
2022/09/09 08:21:13;;;;;;;2.70;1.05;;;;;;;36.07;29.79;99954.75;5069090;27;100492;-81
2022/09/09 08:23:42;;;;;;;7.28;1.58;;;;;;;36.04;28.91;99931.50;5086685;27;97143;-90
2022/09/09 08:26:10;;;;;;;3.60;1.00;;;;;;;34.90;30.86;99958.06;5066071;27;97371;-90
2022/09/09 08:28:36;;;;;;;3.80;1.02;;;;;;;34.34;31.75;99950.59;5086333;27;100088;-90
2022/09/09 08:31:07;;;;;;;4.78;1.65;;;;;;;34.24;31.66;99939.34;5071129;27;100479;-90
2022/09/09 08:33:33;;;;;;;3.83;1.20;;;;;;;33.19;32.36;99931.09;5074788;27;97258;-84
2022/09/09 08:35:59;;;;;;;6.85;1.75;;;;;;;32.46;33.75;99945.41;5077879;27;96986;-87
2022/09/09 08:38:24;;;;;;;3.42;1.15;;;;;;;33.93;32.61;99942.75;5086004;27;101179;-86
2022/09/09 08:40:53;;;;;;;3.88;1.40;;;;;;;34.13;31.12;99948.19;5074531;27;97035;-86
2022/09/09 08:43:21;;;;;;;1.47;0.90;;;;;;;33.39;32.46;99949.28;5054039;27;97240;-86
2022/09/09 08:45:58;;;;;;;5.03;1.60;;;;;;;33.41;32.90;99958.09;5053031;27;96855;-86
2022/09/09 08:48:38;;;;;;;2.97;1.17;;;;;;;31.54;35.13;99962.78;5069494;27;100991;-85
2022/09/09 08:51:07;;;;;;;8.38;2.38;;;;;;;30.88;37.27;99963.00;5065985;27;100942;-85
2022/09/09 08:53:48;;;;;;;1.65;1.13;;;;;;;30.41;36.27;99967.03;5067366;27;97999;-85
2022/09/09 08:56:18;;;;;;;4.28;1.38;;;;;;;30.32;37.51;99967.34;5094370;27;97669;-85
2022/09/09 08:58:52;;;;;;;6.93;1.45;;;;;;;30.91;36.43;99959.06;5068157;27;100770;-85
2022/09/09 09:01:39;;;;;;;4.28;1.00;;;;;;;31.13;35.58;99968.88;5086965;27;97966;-85
2022/09/09 09:04:24;;;;;;;3.42;1.45;;;;;;;31.85;34.20;99968.81;5079328;27;97016;-86
2022/09/09 09:06:54;;;;;;;4.38;1.02;;;;;;;31.40;34.79;99969.13;5090473;27;97591;-86
2022/09/09 09:09:37;;;;;;;3.20;1.77;;;;;;;32.63;34.14;99955.88;5094752;27;100623;-86
2022/09/09 09:12:12;;;;;;;6.30;1.52;;;;;;;31.72;35.38;99986.69;5097421;27;101910;-84
2022/09/09 09:14:38;;;;;;;4.22;1.48;;;;;;;32.19;33.92;99968.84;5077490;27;96763;-83
2022/09/09 09:17:13;;;;;;;4.53;1.50;;;;;;;32.15;34.54;99967.56;5077730;27;97016;-82
2022/09/09 09:19:40;;;;;;;3.33;1.00;;;;;;;30.79;35.58;99968.75;5078195;27;101271;-84
2022/09/09 09:22:31;;;;;;;4.10;1.10;;;;;;;29.93;38.03;99972.00;5072926;27;100875;-83
2022/09/09 09:25:17;;;;;;;6.18;1.38;;;;;;;31.86;35.33;99968.63;5089962;27;97357;-85
2022/09/09 09:28:17;;;;;;;4.18;1.10;;;;;;;30.67;37.00;99976.50;5070741;27;96811;-82
2022/09/09 09:30:59;;;;;;;2.55;1.23;;;;;;;30.47;37.24;99981.69;5075591;27;101712;-84
2022/09/09 09:33:31;;;;;;;1.83;1.10;;;;;;;29.61;37.91;99970.41;5078512;27;101203;-84
2022/09/09 09:35:59;;;;;;;1.67;1.02;;;;;;;29.99;37.85;99968.56;5090238;27;96723;-85
2022/09/09 09:38:28;;;;;;;1.70;1.10;;;;;;;30.01;37.41;99974.59;5054047;27;97274;-85
2022/09/09 09:40:58;;;;;;;4.80;0.90;;;;;;;31.09;35.64;99970.28;5069467;27;101585;-86
2022/09/09 09:43:28;;;;;;;1.67;1.05;;;;;;;32.21;33.86;99969.47;5072190;27;101662;-85
2022/09/09 09:45:55;;;;;;;3.83;1.15;;;;;;;32.52;32.97;99970.03;5075035;27;97417;-85
2022/09/09 09:48:21;;;;;;;6.70;1.55;;;;;;;33.67;32.57;99963.53;5075020;27;96929;-85
2022/09/09 09:50:58;;;;;;;3.03;1.00;;;;;;;34.34;29.82;99968.81;5071589;27;101495;-83
2022/09/09 09:53:31;;;;;;;3.40;1.23;;;;;;;34.44;29.91;99955.56;5059124;27;101396;-85
2022/09/09 09:56:04;;;;;;;2.15;0.93;;;;;;;32.83;31.80;99969.50;5095619;27;96846;-85
2022/09/09 09:58:33;;;;;;;3.50;1.30;;;;;;;32.61;33.67;99966.09;5079881;27;96901;-85
2022/09/09 10:01:00;;;;;;;3.83;1.40;;;;;;;30.22;36.75;99962.19;5091324;27;101800;-85
2022/09/09 10:03:38;;;;;;;1.80;1.20;;;;;;;30.51;36.58;99972.13;5076051;27;101359;-84
2022/09/09 10:06:05;;;;;;;2.80;1.20;;;;;;;30.19;34.91;99976.91;5070489;27;97318;-84
2022/09/09 10:08:34;;;;;;;5.90;1.77;;;;;;;29.78;37.28;99971.13;5107315;27;96798;-83
2022/09/09 10:11:09;;;;;;;2.95;1.02;;;;;;;29.78;37.56;99976.53;5062442;27;101692;-85
2022/09/09 10:13:44;;;;;;;2.47;1.02;;;;;;;29.59;38.18;99975.19;5079541;27;97973;-84
2022/09/09 10:16:19;;;;;;;6.03;1.40;;;;;;;29.32;38.83;99957.69;5105276;27;97419;-83
2022/09/09 10:19:06;;;;;;;3.47;1.58;;;;;;;28.41;40.63;99972.78;5096491;27;97239;-88
2022/09/09 10:21:57;;;;;;;1.27;0.90;;;;;;;27.82;40.73;99975.03;5091321;27;98124;-86
2022/09/09 10:24:44;;;;;;;2.10;1.00;;;;;;;27.62;40.46;99978.03;5054066;27;101652;-85
2022/09/09 10:27:37;;;;;;;3.92;1.05;;;;;;;27.64;40.94;99972.50;5080415;27;97205;-86
2022/09/09 10:30:19;;;;;;;2.08;1.17;;;;;;;27.40;40.80;99976.91;5082489;27;97102;-87
2022/09/09 10:33:10;;;;;;;6.85;1.45;;;;;;;27.12;41.19;99970.13;5055309;27;101383;-85
2022/09/09 10:35:38;;;;;;;3.92;1.02;;;;;;;27.06;41.29;99956.31;5074820;27;101594;-87
2022/09/09 10:38:04;;;;;;;2.13;1.10;;;;;;;26.69;41.67;99977.47;5083373;27;96896;-86
2022/09/09 10:40:44;;;;;;;4.85;1.10;;;;;;;27.28;41.67;99970.16;5083767;27;97122;-86
2022/09/09 10:43:43;;;;;;;5.70;1.38;;;;;;;27.72;39.68;99967.94;5079639;27;101363;-85
2022/09/09 10:46:32;;;;;;;2.03;1.00;;;;;;;27.25;41.41;99968.63;5105060;27;98405;-85
2022/09/09 10:49:15;;;;;;;5.82;2.47;;;;;;;27.32;41.05;99963.44;5077178;27;96977;-85
2022/09/09 10:52:02;;;;;;;9.40;1.73;;;;;;;27.66;40.26;99959.66;5074121;27;97161;-86
2022/09/09 10:54:51;;;;;;;4.40;1.45;;;;;;;27.61;40.68;99957.50;5058257;27;101287;-87
2022/09/09 10:57:31;;;;;;;3.97;1.77;;;;;;;27.03;42.43;99951.28;5092708;27;98290;-86
2022/09/09 11:00:03;;;;;;;4.47;1.10;;;;;;;26.81;43.02;99965.38;5051069;27;98381;-85
2022/09/09 11:02:31;;;;;;;3.63;1.20;;;;;;;26.91;40.96;99952.63;5070462;27;97160;-86
2022/09/09 11:05:12;;;;;;;4.13;1.20;;;;;;;27.16;41.17;99955.34;5074669;27;96913;-86
2022/09/09 11:07:48;;;;;;;4.30;1.70;;;;;;;27.19;40.67;99957.69;5079451;27;100710;-85
2022/09/09 11:10:40;;;;;;;4.93;1.80;;;;;;;26.95;41.80;99970.09;5061394;27;96869;-86
2022/09/09 11:13:18;;;;;;;1.70;1.17;;;;;;;26.53;41.77;99968.34;5073785;27;97655;-85
2022/09/09 11:15:51;;;;;;;2.28;1.25;;;;;;;26.10;42.42;99972.84;5069254;27;101326;-85
2022/09/09 11:18:22;;;;;;;5.20;1.30;;;;;;;25.87;43.37;99974.41;5091915;27;97337;-85
2022/09/09 11:20:52;;;;;;;4.85;1.30;;;;;;;25.81;44.26;99969.66;5077867;27;97225;-84
2022/09/09 11:23:42;;;;;;;1.58;1.20;;;;;;;25.93;43.61;99958.47;5069877;27;97287;-84
2022/09/09 11:26:12;;;;;;;2.80;1.25;;;;;;;25.90;43.51;99953.44;5073732;27;101635;-83
2022/09/09 11:28:55;;;;;;;2.45;1.13;;;;;;;25.24;44.23;99975.44;5057825;27;102267;-82
2022/09/09 11:31:23;;;;;;;1.85;1.02;;;;;;;24.91;45.42;99983.19;5074020;27;96812;-83
2022/09/09 11:34:33;;;;;;;2.97;1.00;;;;;;;25.10;45.73;99978.63;5110243;27;97345;-81
2022/09/09 11:37:40;;;;;;;1.92;1.20;;;;;;;25.33;45.12;99969.13;5026274;27;97698;-83
2022/09/09 11:40:27;;;;;;;2.00;1.20;;;;;;;25.47;44.10;99962.34;5013529;27;98128;-82
2022/09/09 11:43:21;;;;;;;3.38;1.17;;;;;;;25.63;44.56;99970.53;5086137;27;97608;-83
2022/09/09 11:45:53;;;;;;;5.78;1.80;;;;;;;25.73;43.75;99968.59;5095156;27;96837;-84
2022/09/09 11:48:28;;;;;;;5.97;1.42;;;;;;;25.53;44.61;99954.50;5084422;27;97471;-84
2022/09/09 11:51:00;;;;;;;5.60;1.20;;;;;;;25.35;45.20;99967.13;5072484;27;100392;-84
2022/09/09 11:53:26;;;;;;;2.97;1.13;;;;;;;25.03;45.19;99967.69;5058413;27;97456;-81